createdAt,value
2022-11-18T00:01:15.965Z,3.30
2022-11-18T00:03:44.321Z,3.33
2022-11-18T00:06:13.188Z,3.08
2022-11-18T00:08:40.636Z,3.15
2022-11-18T00:11:13.210Z,3.00
2022-11-18T00:13:58.561Z,3.08
2022-11-18T00:16:25.498Z,2.90
2022-11-18T00:18:52.375Z,2.85
2022-11-18T00:21:19.250Z,3.20
2022-11-18T00:23:48.294Z,2.80
2022-11-18T00:26:15.430Z,3.25
2022-11-18T00:28:42.617Z,10.45
2022-11-18T00:31:12.185Z,12.35
2022-11-18T00:33:39.608Z,10.35
2022-11-18T00:36:08.730Z,9.25
2022-11-18T00:38:35.589Z,8.32
2022-11-18T00:41:04.840Z,7.40
2022-11-18T00:43:32.144Z,7.00
2022-11-18T00:45:59.105Z,5.95
2022-11-18T00:48:26.250Z,5.78
2022-11-18T00:50:54.827Z,5.70
2022-11-18T00:53:23.260Z,5.32
2022-11-18T00:55:50.716Z,5.00
2022-11-18T00:58:18.627Z,4.60
2022-11-18T01:00:48.712Z,5.20
2022-11-18T01:03:15.588Z,4.57
2022-11-18T01:05:42.878Z,4.78
2022-11-18T01:08:11.629Z,4.38
2022-11-18T01:10:39.498Z,4.47
2022-11-18T01:13:19.733Z,4.40
2022-11-18T01:15:53.270Z,3.78
2022-11-18T01:18:24.364Z,4.43
2022-11-18T01:20:51.409Z,3.70
2022-11-18T01:23:19.795Z,3.90
2022-11-18T01:25:48.872Z,13.00
2022-11-18T01:28:21.991Z,14.43
2022-11-18T01:30:50.414Z,13.50
2022-11-18T01:33:17.370Z,11.35
2022-11-18T01:35:44.651Z,10.55
2022-11-18T01:38:12.959Z,9.23
2022-11-18T01:40:40.649Z,8.23
2022-11-18T01:43:14.215Z,7.70
2022-11-18T01:45:43.352Z,7.68
2022-11-18T01:48:12.602Z,10.38
2022-11-18T01:50:43.333Z,13.27
2022-11-18T01:53:14.394Z,12.93
2022-11-18T01:55:46.017Z,11.15
2022-11-18T01:58:31.394Z,10.73
2022-11-18T02:00:59.276Z,9.85
2022-11-18T02:03:26.200Z,8.65
2022-11-18T02:05:54.354Z,8.80
2022-11-18T02:08:22.204Z,7.88
2022-11-18T02:10:49.124Z,7.80
2022-11-18T02:13:16.088Z,7.70
2022-11-18T02:15:55.315Z,6.85
2022-11-18T02:18:54.648Z,6.40
2022-11-18T02:22:06.338Z,6.53
2022-11-18T02:25:05.276Z,6.13
2022-11-18T02:28:11.050Z,5.65
2022-11-18T02:31:03.121Z,6.03
2022-11-18T02:33:43.505Z,6.03
2022-11-18T02:36:27.355Z,5.55
2022-11-18T02:38:59.214Z,5.13
2022-11-18T02:41:29.093Z,5.07
2022-11-18T02:44:10.222Z,5.53
2022-11-18T02:46:39.674Z,4.30
2022-11-18T02:49:21.743Z,5.15
2022-11-18T02:51:49.653Z,4.70
2022-11-18T02:54:18.206Z,4.53
2022-11-18T02:56:45.220Z,5.10
2022-11-18T02:59:12.084Z,4.63
2022-11-18T03:01:39.032Z,4.85
2022-11-18T03:04:06.672Z,3.78
2022-11-18T03:06:40.052Z,4.28
2022-11-18T03:09:25.722Z,3.97
2022-11-18T03:12:15.554Z,3.75
2022-11-18T03:14:54.355Z,3.72
2022-11-18T03:17:38.436Z,3.90
2022-11-18T03:20:30.416Z,3.67
2022-11-18T03:23:26.779Z,3.38
2022-11-18T03:26:02.307Z,3.67
2022-11-18T03:28:53.624Z,3.53
2022-11-18T03:31:30.182Z,3.55
2022-11-18T03:34:00.427Z,3.25
2022-11-18T03:36:30.437Z,3.30
2022-11-18T03:39:00.538Z,3.50
2022-11-18T03:41:30.157Z,3.55
2022-11-18T03:44:00.729Z,3.60
2022-11-18T03:46:38.837Z,3.58
2022-11-18T03:49:08.101Z,3.40
2022-11-18T03:51:43.326Z,3.30
2022-11-18T03:54:14.512Z,3.35
2022-11-18T03:56:44.272Z,3.25
2022-11-18T04:02:07.221Z,3.13
2022-11-18T04:04:34.191Z,2.90
2022-11-18T04:07:21.764Z,2.92
2022-11-18T04:10:17.411Z,2.60
2022-11-18T04:13:07.073Z,2.90
2022-11-18T04:18:01.327Z,2.72
2022-11-18T04:20:28.915Z,3.00
2022-11-18T04:22:55.764Z,2.70
2022-11-18T04:25:24.484Z,2.75
2022-11-18T04:27:51.640Z,2.90
2022-11-18T04:30:19.498Z,2.65
2022-11-18T04:32:46.725Z,2.50
2022-11-18T04:35:13.821Z,2.55
2022-11-18T04:37:40.681Z,2.90
2022-11-18T04:40:08.334Z,2.67
2022-11-18T04:42:35.181Z,2.67
2022-11-18T04:45:02.126Z,2.42
2022-11-18T04:47:29.033Z,2.33
2022-11-18T04:49:55.913Z,2.70
2022-11-18T04:52:22.986Z,2.28
2022-11-18T04:54:49.851Z,2.63
2022-11-18T04:57:16.740Z,2.65
2022-11-18T04:59:44.270Z,2.40
2022-11-18T05:02:12.517Z,2.60
2022-11-18T05:04:39.445Z,2.45
2022-11-18T05:07:07.893Z,2.38
2022-11-18T05:09:34.994Z,2.22
2022-11-18T05:12:20.955Z,2.38
2022-11-18T05:14:50.456Z,2.28
2022-11-18T05:17:18.316Z,2.10
2022-11-18T05:19:45.232Z,2.10
2022-11-18T05:22:12.049Z,2.20
2022-11-18T05:24:38.891Z,1.90
2022-11-18T05:27:05.765Z,2.20
2022-11-18T05:29:33.702Z,2.20
2022-11-18T05:32:00.608Z,2.20
2022-11-18T05:34:27.448Z,2.00
2022-11-18T05:36:54.327Z,1.90
2022-11-18T05:39:21.474Z,1.90
2022-11-18T05:42:07.219Z,1.88
2022-11-18T05:44:34.063Z,2.00
2022-11-18T05:47:00.902Z,2.28
2022-11-18T05:49:27.694Z,2.10
2022-11-18T05:51:54.550Z,2.00
2022-11-18T05:54:22.081Z,2.20
2022-11-18T05:56:49.117Z,1.80
2022-11-18T05:59:16.644Z,1.50
2022-11-18T06:01:47.012Z,2.00
2022-11-18T06:04:20.410Z,1.98
2022-11-18T06:06:48.554Z,1.73
2022-11-18T06:09:17.814Z,1.70
2022-11-18T06:11:48.503Z,1.90
2022-11-18T06:14:22.465Z,2.00
2022-11-18T06:16:55.531Z,1.80
2022-11-18T06:19:22.928Z,1.77
2022-11-18T06:21:50.193Z,1.90
2022-11-18T06:24:17.835Z,1.88
2022-11-18T06:26:45.086Z,1.83
2022-11-18T06:29:13.796Z,1.40
2022-11-18T06:31:40.685Z,1.80
2022-11-18T06:34:22.730Z,1.50
2022-11-18T06:36:49.641Z,2.15
2022-11-18T06:39:16.738Z,1.70
2022-11-18T06:41:43.822Z,1.70
2022-11-18T06:44:14.055Z,1.60
2022-11-18T06:46:56.005Z,1.60
2022-11-18T06:49:23.985Z,1.55
2022-11-18T06:51:51.022Z,1.50
2022-11-18T06:54:18.134Z,1.35
2022-11-18T06:56:45.068Z,1.65
2022-11-18T06:59:11.973Z,1.48
2022-11-18T07:01:41.187Z,1.50
2022-11-18T07:04:08.085Z,1.75
2022-11-18T07:06:36.006Z,1.48
2022-11-18T07:09:05.649Z,1.48
2022-11-18T07:11:32.964Z,1.60
2022-11-18T07:14:00.343Z,1.30
2022-11-18T07:16:27.798Z,1.40
2022-11-18T07:18:55.418Z,1.30
2022-11-18T07:21:24.981Z,1.67
2022-11-18T07:23:51.923Z,1.40
2022-11-18T07:26:19.340Z,1.08
2022-11-18T07:28:46.276Z,1.20
2022-11-18T07:31:15.199Z,1.40
2022-11-18T07:33:43.104Z,1.40
2022-11-18T07:36:15.502Z,1.30
2022-11-18T07:38:42.362Z,1.35
2022-11-18T07:41:17.440Z,1.45
2022-11-18T07:43:44.954Z,1.40
2022-11-18T07:46:37.969Z,1.50
2022-11-18T07:49:08.792Z,1.33
2022-11-18T07:51:37.914Z,1.30
2022-11-18T07:54:13.277Z,1.02
2022-11-18T07:56:40.261Z,1.00
2022-11-18T07:59:07.625Z,1.20
2022-11-18T08:01:34.869Z,1.40
2022-11-18T08:04:07.303Z,1.10
2022-11-18T08:06:35.104Z,1.30
2022-11-18T08:09:02.871Z,1.23
2022-11-18T08:11:29.813Z,1.20
2022-11-18T08:13:56.781Z,1.38
2022-11-18T08:16:25.163Z,1.25
2022-11-18T08:18:52.563Z,1.02
2022-11-18T08:21:21.054Z,1.40
2022-11-18T08:23:52.732Z,1.00
2022-11-18T08:26:20.178Z,1.48
2022-11-18T08:28:47.472Z,1.15
2022-11-18T08:31:20.387Z,0.90
2022-11-18T08:33:47.499Z,1.13
2022-11-18T08:36:19.423Z,1.05
2022-11-18T08:38:46.257Z,1.10
2022-11-18T08:41:15.031Z,1.10
2022-11-18T08:43:42.299Z,1.20
2022-11-18T08:46:09.330Z,1.10
2022-11-18T08:48:36.194Z,1.08
2022-11-18T08:51:03.233Z,1.02
2022-11-18T08:53:30.147Z,1.20
2022-11-18T08:55:58.053Z,1.20
2022-11-18T08:58:25.517Z,1.20
2022-11-18T09:00:52.660Z,1.30
2022-11-18T09:03:20.304Z,1.10
2022-11-18T09:05:47.882Z,1.13
2022-11-18T09:08:18.293Z,1.20
2022-11-18T09:10:45.164Z,1.20
2022-11-18T09:13:40.406Z,1.10
2022-11-18T09:15:59.705Z,1.02
2022-11-18T09:18:26.647Z,0.98
2022-11-18T09:21:02.501Z,1.30
2022-11-18T09:23:29.584Z,1.30
2022-11-18T09:26:00.368Z,1.30
2022-11-18T09:28:27.932Z,0.95
2022-11-18T09:30:55.171Z,1.20
2022-11-18T09:33:22.885Z,1.00
2022-11-18T09:35:49.752Z,1.05
2022-11-18T09:38:16.863Z,1.08
2022-11-18T09:41:00.339Z,1.20
2022-11-18T09:43:46.041Z,0.85
2022-11-18T09:46:47.262Z,0.90
2022-11-18T09:49:37.196Z,0.80
2022-11-18T09:55:17.911Z,0.82
2022-11-18T09:57:49.405Z,0.68
2022-11-18T10:00:28.005Z,1.08
2022-11-18T10:02:54.814Z,1.02
2022-11-18T10:05:24.699Z,1.17
2022-11-18T10:07:58.147Z,2.17
2022-11-18T10:11:00.641Z,6.97
2022-11-18T10:13:59.371Z,6.63
2022-11-18T10:16:45.088Z,6.03
2022-11-18T10:19:38.707Z,5.60
2022-11-18T10:25:04.097Z,4.85
2022-11-18T10:27:38.087Z,4.80
2022-11-18T10:30:16.937Z,4.13
2022-11-18T10:33:00.172Z,3.63
2022-11-18T10:35:37.605Z,2.88
2022-11-18T10:38:22.634Z,3.13
2022-11-18T10:41:05.168Z,3.28
2022-11-18T10:43:54.910Z,2.35
2022-11-18T10:49:09.887Z,2.30
2022-11-18T10:51:38.313Z,2.33
2022-11-18T10:54:18.663Z,3.03
2022-11-18T10:56:47.549Z,12.93
2022-11-18T10:59:28.242Z,11.68
2022-11-18T11:02:19.596Z,11.10
2022-11-18T11:04:48.781Z,9.10
2022-11-18T11:07:31.837Z,8.15
2022-11-18T11:10:04.641Z,6.82
2022-11-18T11:12:47.092Z,6.43
2022-11-18T11:15:22.108Z,5.60
2022-11-18T11:18:14.213Z,4.45
2022-11-18T11:20:41.300Z,5.10
2022-11-18T11:23:12.871Z,4.35
2022-11-18T11:28:45.953Z,4.00
2022-11-18T11:31:30.255Z,3.88
2022-11-18T11:34:11.672Z,3.47
2022-11-18T11:37:12.199Z,3.40
2022-11-18T11:39:51.422Z,3.50
2022-11-18T11:42:40.621Z,3.22
2022-11-18T11:45:17.863Z,3.00
2022-11-18T11:48:23.206Z,2.88
2022-11-18T11:51:03.294Z,2.90
2022-11-18T11:54:16.046Z,2.47
2022-11-18T11:56:57.402Z,2.47
2022-11-18T11:59:27.207Z,2.50
2022-11-18T12:04:44.649Z,2.40
2022-11-18T12:10:17.546Z,2.05
2022-11-18T12:13:11.410Z,2.20
2022-11-18T12:15:47.188Z,1.95
2022-11-18T12:18:22.844Z,2.28
2022-11-18T12:20:52.197Z,1.90
2022-11-18T12:23:29.219Z,1.75
2022-11-18T12:28:45.308Z,1.83
2022-11-18T12:31:18.379Z,10.73
2022-11-18T12:34:06.189Z,9.35
2022-11-18T12:36:39.426Z,7.70
2022-11-18T12:39:27.263Z,6.70
2022-11-18T12:42:23.096Z,6.38
2022-11-18T12:44:51.725Z,6.13
2022-11-18T12:47:37.046Z,5.40
2022-11-18T12:50:14.181Z,4.82
2022-11-18T12:52:40.967Z,4.88
2022-11-18T12:55:22.902Z,4.72
2022-11-18T12:57:49.803Z,4.57
2022-11-18T13:00:22.526Z,4.32
2022-11-18T13:02:54.003Z,4.28
2022-11-18T13:05:24.039Z,3.92
2022-11-18T13:08:17.105Z,3.67
2022-11-18T13:10:44.040Z,3.95
2022-11-18T13:13:27.738Z,10.65
2022-11-18T13:16:14.409Z,9.25
2022-11-18T13:18:49.148Z,8.35
2022-11-18T13:21:41.664Z,7.82
2022-11-18T13:24:12.716Z,7.85
2022-11-18T13:29:37.181Z,5.93
2022-11-18T13:35:10.513Z,5.38
2022-11-18T13:37:49.270Z,5.13
2022-11-18T13:40:29.953Z,5.30
2022-11-18T13:42:56.946Z,4.47
2022-11-18T13:45:28.032Z,4.40
2022-11-18T13:48:15.150Z,4.20
2022-11-18T13:50:46.812Z,4.10
2022-11-18T13:53:19.093Z,12.95
2022-11-18T13:56:03.115Z,15.70
2022-11-18T13:58:49.681Z,12.75
2022-11-18T14:01:32.250Z,11.18
2022-11-18T14:04:15.375Z,9.93
2022-11-18T14:06:42.652Z,9.02
2022-11-18T14:09:24.330Z,7.55
2022-11-18T14:12:03.403Z,7.55
2022-11-18T14:14:38.135Z,7.00
2022-11-18T14:17:21.290Z,6.72
2022-11-18T14:19:50.203Z,5.45
2022-11-18T14:22:20.690Z,5.93
2022-11-18T14:25:23.686Z,5.53
2022-11-18T14:27:55.110Z,5.75
2022-11-18T14:30:31.454Z,5.43
2022-11-18T14:33:21.561Z,5.20
2022-11-18T14:35:58.293Z,5.00
2022-11-18T14:41:44.695Z,4.75
2022-11-18T14:44:13.579Z,4.63
2022-11-18T14:46:42.843Z,4.97
2022-11-18T14:49:22.320Z,4.45
2022-11-18T14:54:24.075Z,4.07
2022-11-18T14:56:55.883Z,4.18
2022-11-18T15:01:49.833Z,3.90
2022-11-18T15:04:21.277Z,4.38
2022-11-18T15:06:48.671Z,4.32
2022-11-18T15:09:15.570Z,4.00
2022-11-18T15:11:42.734Z,4.18
2022-11-18T15:14:09.711Z,4.07
2022-11-18T15:16:37.060Z,4.18
2022-11-18T15:19:05.679Z,4.05
2022-11-18T15:21:33.969Z,3.97
2022-11-18T15:24:00.865Z,3.92
2022-11-18T15:26:33.542Z,3.47
2022-11-18T15:29:00.417Z,3.20
2022-11-18T15:31:27.293Z,3.40
2022-11-18T15:33:54.422Z,3.45
2022-11-18T15:36:26.327Z,3.45
2022-11-18T15:38:54.392Z,3.72
2022-11-18T15:41:26.260Z,3.67
2022-11-18T15:43:54.268Z,3.58
2022-11-18T15:46:23.057Z,3.33
2022-11-18T15:48:59.962Z,3.15
2022-11-18T15:51:28.426Z,3.42
2022-11-18T15:53:55.299Z,3.30
2022-11-18T15:56:27.181Z,3.80
2022-11-18T15:58:59.591Z,3.45
2022-11-18T16:01:28.679Z,3.10
2022-11-18T16:03:55.971Z,3.30
2022-11-18T16:06:23.050Z,3.92
2022-11-18T16:08:54.419Z,2.63
2022-11-18T16:11:43.197Z,2.95
2022-11-18T16:14:11.978Z,3.17
2022-11-18T16:16:40.275Z,3.13
2022-11-18T16:19:10.335Z,2.70
2022-11-18T16:21:39.474Z,2.90
2022-11-18T16:24:08.977Z,2.50
2022-11-18T16:26:37.204Z,6.43
2022-11-18T16:29:05.651Z,13.60
2022-11-18T16:31:41.685Z,11.65
2022-11-18T16:34:22.444Z,10.73
2022-11-18T16:36:54.847Z,9.50
2022-11-18T16:39:27.322Z,8.60
2022-11-18T16:42:06.761Z,7.63
2022-11-18T16:44:35.352Z,18.05
2022-11-18T16:47:02.508Z,21.98
2022-11-18T16:49:29.334Z,20.58
2022-11-18T16:51:57.069Z,18.52
2022-11-18T16:54:31.087Z,17.08
2022-11-18T16:56:59.206Z,14.27
2022-11-18T16:59:30.703Z,12.70
2022-11-18T17:01:58.991Z,10.73
2022-11-18T17:04:27.355Z,9.25
2022-11-18T17:06:54.787Z,8.80
2022-11-18T17:09:23.944Z,8.13
2022-11-18T17:11:52.028Z,7.80
2022-11-18T17:14:19.709Z,7.35
2022-11-18T17:16:46.672Z,6.68
2022-11-18T17:19:15.804Z,6.43
2022-11-18T17:21:43.091Z,6.70
2022-11-18T17:24:12.139Z,6.55
2022-11-18T17:26:39.080Z,5.65
2022-11-18T17:29:06.026Z,5.50
2022-11-18T17:31:33.906Z,5.35
2022-11-18T17:34:00.836Z,5.22
2022-11-18T17:36:28.173Z,5.53
2022-11-18T17:38:56.832Z,5.38
2022-11-18T17:41:44.294Z,5.10
2022-11-18T17:44:12.754Z,4.50
2022-11-18T17:46:40.147Z,4.10
2022-11-18T17:49:13.541Z,4.72
2022-11-18T17:51:40.612Z,4.30
2022-11-18T17:54:08.525Z,4.25
2022-11-18T17:56:35.599Z,3.95
2022-11-18T17:59:02.484Z,3.80
2022-11-18T18:01:29.471Z,4.18
2022-11-18T18:03:56.444Z,4.10
2022-11-18T18:06:23.425Z,3.97
2022-11-18T18:08:54.914Z,4.30
2022-11-18T18:11:21.901Z,3.90
2022-11-18T18:14:07.418Z,3.70
2022-11-18T18:16:34.602Z,3.60
2022-11-18T18:19:02.942Z,3.40
2022-11-18T18:21:29.911Z,3.55
2022-11-18T18:23:57.001Z,3.28
2022-11-18T18:26:29.707Z,3.60
2022-11-18T18:29:01.511Z,3.38
2022-11-18T18:31:29.085Z,3.15
2022-11-18T18:33:56.003Z,3.40
2022-11-18T18:36:24.993Z,3.38
2022-11-18T18:38:52.528Z,3.25
2022-11-18T18:41:21.520Z,3.30
2022-11-18T18:43:49.565Z,3.17
2022-11-18T18:46:28.701Z,2.85
2022-11-18T18:49:20.322Z,3.42
2022-11-18T18:51:50.706Z,3.30
2022-11-18T18:54:19.095Z,3.05
2022-11-18T18:56:46.350Z,2.80
2022-11-18T18:59:13.213Z,2.80
2022-11-18T19:01:40.237Z,3.05
2022-11-18T19:04:10.480Z,3.03
2022-11-18T19:07:00.198Z,3.13
2022-11-18T19:09:26.171Z,2.70
2022-11-18T19:12:12.448Z,2.65
2022-11-18T19:14:39.556Z,2.55
2022-11-18T19:17:11.329Z,2.75
2022-11-18T19:19:59.648Z,3.00
2022-11-18T19:22:28.492Z,2.60
2022-11-18T19:24:55.920Z,2.25
2022-11-18T19:27:23.114Z,2.60
2022-11-18T19:29:49.990Z,2.33
2022-11-18T19:32:16.896Z,2.92
2022-11-18T19:34:43.771Z,2.53
2022-11-18T19:37:10.726Z,2.33
2022-11-18T19:39:38.690Z,2.60
2022-11-18T19:42:05.838Z,2.35
2022-11-18T19:44:32.776Z,2.30
2022-11-18T19:46:59.608Z,2.10
2022-11-18T19:49:26.454Z,2.33
2022-11-18T19:51:53.271Z,2.50
2022-11-18T19:54:20.199Z,2.58
2022-11-18T19:56:47.080Z,2.10
2022-11-18T19:59:14.091Z,2.38
2022-11-18T20:01:41.425Z,2.10
2022-11-18T20:04:08.436Z,2.30
2022-11-18T20:06:36.533Z,2.10
2022-11-18T20:09:07.004Z,2.17
2022-11-18T20:11:33.918Z,2.22
2022-11-18T20:14:00.840Z,2.40
2022-11-18T20:16:28.115Z,2.00
2022-11-18T20:18:56.833Z,2.08
2022-11-18T20:21:25.104Z,2.13
2022-11-18T20:23:57.149Z,1.90
2022-11-18T20:26:29.469Z,2.05
2022-11-18T20:28:57.853Z,2.00
2022-11-18T20:31:26.630Z,2.17
2022-11-18T20:33:55.215Z,2.00
2022-11-18T20:36:24.395Z,1.83
2022-11-18T20:38:53.803Z,2.08
2022-11-18T20:41:21.401Z,1.85
2022-11-18T20:43:49.451Z,1.90
2022-11-18T20:46:20.792Z,2.10
2022-11-18T20:48:48.729Z,1.90
2022-11-18T20:51:21.154Z,1.85
2022-11-18T20:53:48.229Z,1.80
2022-11-18T20:56:17.427Z,2.05
2022-11-18T20:58:44.456Z,1.73
2022-11-18T21:01:17.035Z,2.10
2022-11-18T21:03:48.662Z,1.65
2022-11-18T21:06:15.635Z,1.83
2022-11-18T21:08:42.841Z,19.88
2022-11-18T21:11:11.752Z,23.05
2022-11-18T21:13:58.208Z,26.40
2022-11-18T21:16:26.452Z,28.58
2022-11-18T21:18:53.713Z,26.73
2022-11-18T21:21:39.315Z,25.33
2022-11-18T21:24:06.700Z,23.75
2022-11-18T21:26:35.063Z,22.75
2022-11-18T21:29:04.836Z,20.77
2022-11-18T21:31:32.334Z,19.55
2022-11-18T21:33:59.562Z,17.98
2022-11-18T21:36:27.428Z,16.45
2022-11-18T21:38:54.884Z,15.50
2022-11-18T21:41:21.751Z,15.13
2022-11-18T21:44:04.987Z,13.65
2022-11-18T21:46:32.209Z,13.07
2022-11-18T21:49:00.457Z,11.40
2022-11-18T21:51:27.877Z,12.02
2022-11-18T21:53:55.089Z,11.32
2022-11-18T21:56:25.161Z,10.80
2022-11-18T21:58:52.711Z,9.85
2022-11-18T22:01:24.044Z,9.80
2022-11-18T22:03:55.567Z,9.88
2022-11-18T22:06:24.548Z,9.35
2022-11-18T22:08:52.068Z,28.57
2022-11-18T22:11:20.430Z,28.27
2022-11-18T22:13:47.433Z,28.23
2022-11-18T22:16:16.776Z,26.95
2022-11-18T22:18:45.194Z,24.48
2022-11-18T22:21:14.703Z,21.38
2022-11-18T22:23:41.684Z,21.02
2022-11-18T22:26:12.099Z,19.60
2022-11-18T22:28:39.364Z,17.58
2022-11-18T22:31:09.381Z,17.25
2022-11-18T22:33:36.640Z,15.27
2022-11-18T22:36:08.568Z,15.00
2022-11-18T22:38:35.475Z,22.58
2022-11-18T22:41:04.228Z,28.48
2022-11-18T22:43:32.471Z,26.87
2022-11-18T22:46:08.125Z,24.38
2022-11-18T22:48:35.534Z,22.27
2022-11-18T22:51:05.251Z,21.92
2022-11-18T22:56:07.911Z,19.30
2022-11-18T22:58:35.045Z,18.35
2022-11-18T23:01:03.628Z,17.45
2022-11-18T23:03:31.082Z,15.63
2022-11-18T23:05:58.330Z,15.00
2022-11-18T23:08:25.999Z,13.93
2022-11-18T23:10:53.147Z,13.45
2022-11-18T23:13:38.447Z,13.20
2022-11-18T23:16:05.605Z,12.68
2022-11-18T23:18:32.437Z,11.95
2022-11-18T23:21:00.788Z,11.30
2022-11-18T23:23:29.087Z,17.95
2022-11-18T23:26:02.110Z,28.83
2022-11-18T23:28:29.143Z,27.33
2022-11-18T23:31:04.712Z,25.63
2022-11-18T23:33:31.671Z,23.58
2022-11-18T23:35:58.493Z,20.95
2022-11-18T23:38:26.621Z,19.23
2022-11-18T23:43:29.687Z,17.38
2022-11-18T23:45:57.401Z,16.48
2022-11-18T23:48:25.347Z,15.05
2022-11-18T23:51:13.859Z,13.63
2022-11-18T23:53:41.307Z,13.45
2022-11-18T23:56:10.390Z,15.43
2022-11-18T23:58:41.406Z,38.97
